Time;durP1;ratioP1;P1;durP2;ratioP2;P2;SDS_P1;SDS_P2;PMS_P1;PMS_P2;Temp;Humidity;BMP_temperature;BMP_pressure;BME280_temperature;BME280_humidity;BME280_pressure;Samples;Min_cycle;Max_cycle;Signal;HPM_P1;HPM_P2
2023/07/20 00:00:53;;;;;;;1.85;1.73;;;16.00;99.90;;;;;;4931481;29;20468;-35
2023/07/20 00:03:23;;;;;;;1.98;1.88;;;15.90;99.90;;;;;;4927288;29;20501;-35
2023/07/20 00:05:49;;;;;;;2.17;2.00;;;15.90;99.90;;;;;;4931942;29;20050;-35
2023/07/20 00:08:17;;;;;;;1.80;1.70;;;15.90;99.90;;;;;;4926447;29;20406;-35
2023/07/20 00:10:42;;;;;;;2.38;2.10;;;15.90;99.90;;;;;;4925099;29;20040;-35
2023/07/20 00:13:09;;;;;;;3.13;2.35;;;15.90;99.90;;;;;;4929649;29;20038;-34
2023/07/20 00:15:35;;;;;;;2.20;2.10;;;15.90;99.90;;;;;;4925681;29;20473;-35
2023/07/20 00:18:01;;;;;;;2.50;2.30;;;15.90;99.90;;;;;;4919527;23;20088;-32
2023/07/20 00:20:26;;;;;;;2.13;2.03;;;15.90;99.90;;;;;;4897968;29;20043;-32
2023/07/20 00:22:52;;;;;;;2.50;2.30;;;15.80;99.90;;;;;;4899500;29;20047;-32
2023/07/20 00:25:18;;;;;;;2.58;2.35;;;15.80;99.90;;;;;;4899013;29;20035;-32
2023/07/20 00:27:44;;;;;;;2.35;2.13;;;15.80;99.90;;;;;;4894892;29;20044;-32
2023/07/20 00:30:10;;;;;;;2.80;2.60;;;15.80;99.90;;;;;;4896446;29;20063;-32
2023/07/20 00:32:36;;;;;;;2.90;2.70;;;15.80;99.90;;;;;;4877859;29;20055;-31
2023/07/20 00:35:01;;;;;;;2.83;2.55;;;15.70;99.90;;;;;;4893381;29;20044;-32
2023/07/20 00:37:28;;;;;;;3.00;2.70;;;15.70;99.90;;;;;;4878661;29;20138;-32
2023/07/20 00:39:54;;;;;;;2.63;2.42;;;15.70;99.90;;;;;;4901805;29;20450;-32
2023/07/20 00:42:20;;;;;;;3.15;2.33;;;15.70;99.90;;;;;;4907481;29;20040;-32
2023/07/20 00:44:46;;;;;;;2.55;2.35;;;15.60;99.90;;;;;;4895581;29;20041;-32
2023/07/20 00:47:12;;;;;;;2.50;2.30;;;15.70;99.90;;;;;;4863144;29;20509;-32
2023/07/20 00:49:38;;;;;;;3.47;2.90;;;15.60;99.90;;;;;;4894917;29;20044;-32
2023/07/20 00:52:07;;;;;;;3.30;3.00;;;15.60;99.90;;;;;;4896529;29;20091;-32
2023/07/20 00:54:34;;;;;;;2.88;2.50;;;15.60;99.90;;;;;;4895132;29;20044;-32
2023/07/20 00:57:02;;;;;;;2.47;2.25;;;15.60;99.90;;;;;;4897263;29;20048;-32
2023/07/20 00:59:28;;;;;;;2.97;2.70;;;15.60;99.90;;;;;;4898003;29;20049;-32
2023/07/20 01:01:54;;;;;;;3.17;2.90;;;15.60;99.90;;;;;;4878535;29;20048;-32
2023/07/20 01:04:20;;;;;;;3.60;2.80;;;15.60;99.90;;;;;;4905855;29;20467;-32
2023/07/20 01:07:00;;;;;;;3.40;2.70;;;15.50;99.90;;;;;;4895703;29;20048;-32
2023/07/20 01:09:39;;;;;;;2.53;2.42;;;15.60;99.90;;;;;;4897475;29;20498;-32
2023/07/20 01:12:12;;;;;;;3.40;2.50;;;15.60;99.90;;;;;;4890285;29;20108;-32
2023/07/20 01:14:38;;;;;;;2.95;2.75;;;15.50;99.90;;;;;;4904245;29;20066;-32
2023/07/20 01:17:04;;;;;;;3.08;2.88;;;15.50;99.90;;;;;;4900230;29;20404;-32
2023/07/20 01:19:30;;;;;;;2.83;2.63;;;15.50;99.90;;;;;;4899598;29;20048;-32
2023/07/20 01:22:01;;;;;;;2.92;2.72;;;15.40;99.90;;;;;;4902609;29;20149;-32
2023/07/20 01:24:47;;;;;;;2.92;2.50;;;15.40;99.90;;;;;;4894001;29;20044;-32
2023/07/20 01:27:40;;;;;;;3.50;3.20;;;15.50;99.90;;;;;;4901849;29;20569;-32
2023/07/20 01:30:19;;;;;;;3.00;2.80;;;15.50;99.90;;;;;;4904395;29;20044;-32
2023/07/20 01:32:47;;;;;;;3.53;3.28;;;15.50;99.90;;;;;;4900857;29;20383;-32
2023/07/20 01:35:15;;;;;;;3.90;3.42;;;15.50;99.90;;;;;;4901660;29;20048;-32
2023/07/20 01:37:44;;;;;;;3.30;3.10;;;15.50;99.90;;;;;;4894219;29;20487;-32
2023/07/20 01:40:11;;;;;;;3.35;3.13;;;15.40;99.90;;;;;;4899804;29;20040;-32
2023/07/20 01:42:37;;;;;;;4.25;3.85;;;15.40;99.90;;;;;;4894090;29;20045;-32
2023/07/20 01:45:03;;;;;;;4.13;3.83;;;15.40;99.90;;;;;;4893721;29;20039;-32
2023/07/20 01:47:29;;;;;;;3.83;3.53;;;15.40;99.90;;;;;;4897288;29;20041;-32
2023/07/20 01:49:54;;;;;;;3.88;3.58;;;15.30;99.90;;;;;;4897567;29;20484;-32
2023/07/20 01:52:20;;;;;;;4.38;4.07;;;15.30;99.90;;;;;;4887711;29;20048;-32
2023/07/20 01:54:45;;;;;;;4.07;3.78;;;15.20;99.90;;;;;;4895142;29;20048;-32
2023/07/20 01:57:11;;;;;;;4.10;3.72;;;15.10;99.90;;;;;;4899596;29;20044;-32
2023/07/20 01:59:37;;;;;;;4.28;3.97;;;15.10;99.90;;;;;;4894338;29;20045;-32
2023/07/20 02:02:02;;;;;;;3.97;3.60;;;15.00;99.90;;;;;;4912102;29;20036;-32
2023/07/20 02:04:28;;;;;;;4.30;3.97;;;15.00;99.90;;;;;;4885577;29;20051;-32
2023/07/20 02:06:54;;;;;;;4.85;4.45;;;14.90;99.90;;;;;;4898611;29;20049;-32
2023/07/20 02:09:20;;;;;;;4.97;4.57;;;14.90;99.90;;;;;;4893905;29;20146;-32
2023/07/20 02:11:45;;;;;;;4.45;4.15;;;14.80;99.90;;;;;;4881128;29;20131;-32
2023/07/20 02:14:11;;;;;;;4.70;4.30;;;14.80;99.90;;;;;;4900083;29;20168;-32
2023/07/20 02:16:37;;;;;;;4.20;3.90;;;14.70;99.90;;;;;;4907001;29;20040;-32
2023/07/20 02:19:04;;;;;;;4.88;4.47;;;14.70;99.90;;;;;;4907003;29;20033;-32
2023/07/20 02:21:29;;;;;;;4.63;4.28;;;14.60;99.90;;;;;;4893421;29;20048;-32
2023/07/20 02:23:55;;;;;;;5.70;5.20;;;14.60;99.90;;;;;;4895905;29;20186;-31
2023/07/20 02:26:21;;;;;;;4.85;4.45;;;14.50;99.90;;;;;;4902643;29;20490;-31
2023/07/20 02:28:46;;;;;;;5.20;4.80;;;14.50;99.90;;;;;;4905237;29;20048;-31
2023/07/20 02:31:12;;;;;;;5.85;5.35;;;14.40;99.90;;;;;;4898401;29;20101;-31
2023/07/20 02:33:37;;;;;;;5.47;4.97;;;14.40;99.90;;;;;;4895720;29;20414;-31
2023/07/20 02:36:03;;;;;;;5.38;4.88;;;14.30;99.90;;;;;;4889413;29;20048;-31
2023/07/20 02:38:29;;;;;;;5.30;4.90;;;14.20;99.90;;;;;;4891866;29;20041;-31
2023/07/20 02:40:55;;;;;;;5.78;5.28;;;14.20;99.90;;;;;;4908666;29;20044;-31
2023/07/20 02:43:20;;;;;;;6.00;5.43;;;14.10;99.90;;;;;;4883429;29;20044;-32
2023/07/20 02:45:46;;;;;;;6.07;5.50;;;14.10;99.90;;;;;;4892616;29;20047;-34
2023/07/20 02:48:11;;;;;;;6.10;5.50;;;14.00;99.90;;;;;;4891984;29;20219;-34
2023/07/20 02:50:37;;;;;;;6.55;5.95;;;14.00;99.90;;;;;;4892951;29;20068;-34
2023/07/20 02:53:03;;;;;;;6.20;5.60;;;13.90;99.90;;;;;;4895998;29;20112;-35
2023/07/20 02:55:28;;;;;;;6.75;6.15;;;13.90;99.90;;;;;;4895992;29;20469;-37
2023/07/20 02:57:54;;;;;;;6.30;5.80;;;13.90;99.90;;;;;;4896166;29;20132;-34
2023/07/20 03:00:20;;;;;;;5.72;5.22;;;13.80;99.90;;;;;;4896247;29;20056;-35
2023/07/20 03:02:55;;;;;;;6.95;6.13;;;13.80;99.90;;;;;;4894750;29;20048;-35
2023/07/20 03:05:22;;;;;;;7.35;6.65;;;13.70;99.90;;;;;;4878604;29;20037;-37
2023/07/20 03:07:48;;;;;;;5.43;4.93;;;13.70;99.90;;;;;;4903084;29;20047;-35
2023/07/20 03:10:14;;;;;;;6.45;5.57;;;13.60;99.90;;;;;;4896203;29;20041;-35
2023/07/20 03:12:40;;;;;;;6.68;6.05;;;13.60;99.90;;;;;;4901723;29;20032;-34
2023/07/20 03:15:06;;;;;;;6.55;6.03;;;13.60;99.90;;;;;;4895702;29;20044;-34
2023/07/20 03:17:32;;;;;;;6.47;5.88;;;13.60;99.90;;;;;;4888367;29;20111;-34
2023/07/20 03:19:59;;;;;;;6.18;5.68;;;13.50;99.90;;;;;;4895559;29;20180;-35
2023/07/20 03:22:25;;;;;;;6.97;6.30;;;13.50;99.90;;;;;;4890143;29;20048;-34
2023/07/20 03:24:52;;;;;;;7.00;6.30;;;13.50;99.90;;;;;;4895378;29;20028;-34
2023/07/20 03:27:18;;;;;;;6.45;5.93;;;13.40;99.90;;;;;;4895050;29;20052;-35
2023/07/20 03:29:44;;;;;;;5.90;5.40;;;13.40;99.90;;;;;;4877778;29;20040;-36
2023/07/20 03:32:10;;;;;;;7.32;5.97;;;13.30;99.90;;;;;;4877645;29;20071;-37
2023/07/20 03:34:36;;;;;;;5.85;5.35;;;13.30;99.90;;;;;;4895061;29;20414;-34
2023/07/20 03:37:04;;;;;;;6.53;5.93;;;13.30;99.90;;;;;;4895514;29;20033;-34
2023/07/20 03:39:30;;;;;;;6.70;6.10;;;13.30;99.90;;;;;;4877812;29;20060;-34
2023/07/20 03:41:57;;;;;;;7.45;5.70;;;13.20;99.90;;;;;;4901303;29;20047;-37
2023/07/20 03:44:22;;;;;;;6.20;5.60;;;13.20;99.90;;;;;;4895759;29;20119;-34
2023/07/20 03:46:48;;;;;;;6.07;5.57;;;13.20;99.90;;;;;;4894372;29;20467;-35
2023/07/20 03:49:14;;;;;;;6.18;5.57;;;13.20;99.90;;;;;;4897919;29;20101;-37
2023/07/20 03:51:39;;;;;;;5.82;5.22;;;13.20;99.90;;;;;;4895538;29;20451;-34
2023/07/20 03:54:05;;;;;;;6.78;5.45;;;13.20;99.90;;;;;;4902426;29;20047;-34
2023/07/20 03:56:35;;;;;;;6.97;6.10;;;13.20;99.90;;;;;;4899293;29;20082;-36
2023/07/20 03:59:01;;;;;;;6.35;5.75;;;13.10;99.90;;;;;;4895058;29;20104;-35
2023/07/20 04:01:26;;;;;;;7.75;5.85;;;13.10;99.90;;;;;;4897725;29;20418;-35
2023/07/20 04:03:52;;;;;;;7.55;5.88;;;13.10;99.90;;;;;;4894619;29;20063;-33
2023/07/20 04:06:17;;;;;;;5.90;5.40;;;13.00;99.90;;;;;;4881159;29;20299;-34
2023/07/20 04:08:47;;;;;;;5.93;5.38;;;13.00;99.90;;;;;;4893302;29;20047;-34
2023/07/20 04:11:12;;;;;;;5.65;5.03;;;13.00;99.90;;;;;;4888911;29;20104;-37
2023/07/20 04:13:38;;;;;;;5.60;5.10;;;13.00;99.90;;;;;;4895152;29;20044;-33
2023/07/20 04:16:04;;;;;;;7.22;5.45;;;13.00;99.90;;;;;;4893870;29;20052;-34
2023/07/20 04:18:30;;;;;;;5.47;4.95;;;12.90;99.90;;;;;;4894147;29;20048;-34
2023/07/20 04:20:56;;;;;;;5.82;5.38;;;12.90;99.90;;;;;;4888726;29;20082;-34
2023/07/20 04:23:22;;;;;;;5.40;4.93;;;12.90;99.90;;;;;;4895042;29;20063;-35
2023/07/20 04:25:47;;;;;;;7.85;6.13;;;12.90;99.90;;;;;;4892306;29;20486;-35
2023/07/20 04:28:13;;;;;;;6.05;5.20;;;12.90;99.90;;;;;;4893702;29;20036;-36
2023/07/20 04:30:40;;;;;;;6.32;5.00;;;12.90;99.90;;;;;;4894797;29;20093;-34
2023/07/20 04:33:06;;;;;;;5.63;4.97;;;12.90;99.90;;;;;;4892909;29;20488;-34
2023/07/20 04:35:50;;;;;;;5.68;5.20;;;12.90;99.90;;;;;;4894821;29;20124;-34
2023/07/20 04:38:17;;;;;;;6.50;5.90;;;12.90;99.90;;;;;;4892872;29;20076;-34
2023/07/20 04:40:44;;;;;;;5.90;5.38;;;13.00;99.90;;;;;;4893991;29;20048;-33
2023/07/20 04:43:10;;;;;;;5.55;5.05;;;13.00;99.90;;;;;;4874782;29;20040;-34
2023/07/20 04:45:36;;;;;;;6.05;5.32;;;13.10;99.90;;;;;;4886146;29;20056;-34
2023/07/20 04:48:02;;;;;;;5.50;5.00;;;13.10;99.90;;;;;;4876127;29;20040;-37
2023/07/20 04:50:28;;;;;;;5.32;4.90;;;13.10;99.90;;;;;;4894612;29;20406;-36
2023/07/20 04:52:53;;;;;;;6.45;4.97;;;13.10;99.90;;;;;;4892919;29;20037;-37
2023/07/20 04:55:19;;;;;;;5.88;4.93;;;13.10;99.90;;;;;;4892028;29;20555;-34
2023/07/20 04:57:45;;;;;;;6.28;5.68;;;13.10;99.90;;;;;;4891149;29;20047;-34
2023/07/20 05:00:13;;;;;;;5.90;5.32;;;13.10;99.90;;;;;;4872976;29;20087;-34
2023/07/20 05:02:38;;;;;;;6.97;5.07;;;13.10;99.90;;;;;;4889411;29;20128;-34
2023/07/20 05:05:07;;;;;;;6.00;5.40;;;13.20;99.90;;;;;;4876998;29;20116;-34
2023/07/20 05:07:33;;;;;;;6.60;5.60;;;13.20;99.90;;;;;;4893371;29;20047;-34
2023/07/20 05:09:59;;;;;;;5.85;5.25;;;13.20;99.90;;;;;;4887373;29;20410;-35
2023/07/20 05:12:25;;;;;;;6.43;5.30;;;13.20;99.90;;;;;;4891334;29;20443;-35
2023/07/20 05:14:50;;;;;;;5.72;5.22;;;13.30;99.90;;;;;;4886946;29;20044;-37
2023/07/20 05:17:16;;;;;;;5.60;4.82;;;13.40;99.90;;;;;;4893616;29;20065;-36
2023/07/20 05:19:41;;;;;;;5.32;4.90;;;13.40;99.90;;;;;;4893559;29;20100;-34
2023/07/20 05:22:07;;;;;;;7.03;4.57;;;13.40;99.90;;;;;;4893347;29;20553;-35
2023/07/20 05:24:33;;;;;;;6.88;4.90;;;13.50;99.90;;;;;;4893837;29;20086;-35
2023/07/20 05:26:59;;;;;;;6.00;4.28;;;13.60;99.90;;;;;;4893937;29;20119;-37
2023/07/20 05:29:25;;;;;;;6.30;4.75;;;13.60;99.90;;;;;;4892943;29;20040;-37
2023/07/20 05:31:51;;;;;;;5.32;4.82;;;13.70;99.90;;;;;;4893121;29;20063;-37
2023/07/20 05:34:16;;;;;;;5.57;4.60;;;13.70;99.90;;;;;;4891015;29;20386;-35
2023/07/20 05:36:42;;;;;;;4.45;3.90;;;13.80;99.90;;;;;;4891053;29;20115;-34
2023/07/20 05:39:07;;;;;;;4.65;4.20;;;13.80;99.90;;;;;;4892701;29;20041;-36
2023/07/20 05:41:33;;;;;;;5.38;4.28;;;13.90;99.90;;;;;;4890963;29;20045;-35
2023/07/20 05:43:59;;;;;;;4.10;3.80;;;14.00;99.90;;;;;;4889500;29;20084;-38
2023/07/20 05:46:24;;;;;;;5.07;4.05;;;14.10;99.90;;;;;;4889529;29;20080;-34
2023/07/20 05:48:50;;;;;;;4.47;3.42;;;14.10;99.90;;;;;;4891383;29;20040;-38
2023/07/20 05:51:16;;;;;;;4.47;4.07;;;14.30;99.90;;;;;;4890982;29;20037;-35
2023/07/20 05:53:41;;;;;;;4.13;3.72;;;14.40;99.90;;;;;;4887993;29;20048;-35
2023/07/20 05:56:10;;;;;;;5.30;3.55;;;14.40;99.90;;;;;;4890414;29;20037;-38
2023/07/20 05:58:36;;;;;;;4.80;4.40;;;14.50;99.90;;;;;;4889162;29;20112;-35
2023/07/20 06:01:06;;;;;;;5.80;3.70;;;14.60;99.90;;;;;;4885676;29;20032;-35
2023/07/20 06:03:33;;;;;;;4.10;3.80;;;14.70;99.90;;;;;;4887630;29;20056;-36
2023/07/20 06:06:01;;;;;;;5.00;4.22;;;14.80;99.90;;;;;;4887247;29;20128;-36
2023/07/20 06:08:28;;;;;;;3.83;3.53;;;14.80;99.90;;;;;;4889977;29;20041;-36
2023/07/20 06:10:54;;;;;;;3.75;3.28;;;14.90;99.90;;;;;;4891421;29;20573;-39
2023/07/20 06:13:19;;;;;;;3.90;2.90;;;15.00;99.90;;;;;;4891996;29;20115;-36
2023/07/20 06:15:45;;;;;;;5.50;3.42;;;15.10;99.90;;;;;;4891174;29;20536;-35
2023/07/20 06:18:11;;;;;;;3.10;2.90;;;15.20;99.90;;;;;;4883825;29;20037;-35
2023/07/20 06:20:36;;;;;;;2.95;2.63;;;15.30;99.90;;;;;;4890254;29;20072;-35
2023/07/20 06:23:02;;;;;;;3.63;2.60;;;15.40;99.90;;;;;;4860326;29;20040;-38
2023/07/20 06:25:28;;;;;;;4.13;2.72;;;15.50;99.90;;;;;;4895447;29;20041;-36
2023/07/20 06:27:55;;;;;;;3.03;2.70;;;15.60;99.90;;;;;;4897113;29;20258;-36
2023/07/20 06:30:21;;;;;;;2.97;2.63;;;15.70;99.90;;;;;;4895388;29;20037;-38
2023/07/20 06:32:47;;;;;;;3.92;2.65;;;15.80;99.90;;;;;;4896632;29;20403;-32
2023/07/20 06:35:13;;;;;;;2.55;2.35;;;15.80;99.90;;;;;;4904245;29;20036;-33
2023/07/20 06:37:39;;;;;;;2.83;2.47;;;15.90;99.90;;;;;;4899274;29;20098;-33
2023/07/20 06:40:09;;;;;;;2.25;2.10;;;16.00;99.90;;;;;;4893260;29;20063;-33
2023/07/20 06:42:37;;;;;;;2.30;2.10;;;16.10;99.90;;;;;;4904323;29;20043;-33
2023/07/20 06:45:04;;;;;;;2.80;2.35;;;16.20;99.90;;;;;;4902794;29;20490;-33
2023/07/20 06:47:36;;;;;;;3.53;1.58;;;16.20;99.90;;;;;;4907587;29;20072;-33
2023/07/20 06:50:08;;;;;;;2.28;1.85;;;16.30;99.90;;;;;;4885229;29;20403;-33
2023/07/20 06:52:36;;;;;;;2.65;1.90;;;16.40;99.90;;;;;;4915539;29;20043;-33
2023/07/20 06:55:03;;;;;;;2.50;2.30;;;16.50;99.90;;;;;;4880725;29;20434;-33
2023/07/20 06:57:29;;;;;;;2.75;1.30;;;16.70;99.90;;;;;;4905660;29;20051;-33
2023/07/20 06:59:54;;;;;;;4.93;1.90;;;16.80;99.90;;;;;;4897933;29;20037;-33
2023/07/20 07:02:20;;;;;;;3.38;1.45;;;16.90;99.90;;;;;;4891613;29;20106;-33
2023/07/20 07:04:46;;;;;;;1.08;1.00;;;17.00;99.90;;;;;;4894358;29;20418;-33
2023/07/20 07:07:17;;;;;;;2.20;1.55;;;17.10;99.90;;;;;;4897779;29;20044;-33
2023/07/20 07:09:43;;;;;;;3.42;1.40;;;17.20;99.90;;;;;;4893122;29;20041;-33
2023/07/20 07:12:09;;;;;;;2.40;1.48;;;17.20;99.90;;;;;;4896831;29;20044;-33
2023/07/20 07:14:35;;;;;;;1.98;1.20;;;17.30;99.90;;;;;;4912807;29;20047;-33
2023/07/20 07:17:01;;;;;;;1.83;1.20;;;17.40;99.90;;;;;;4898506;29;20037;-33
2023/07/20 07:19:26;;;;;;;6.28;2.55;;;17.30;99.90;;;;;;4885164;29;20096;-33
2023/07/20 07:21:52;;;;;;;4.45;1.60;;;17.30;99.90;;;;;;4897512;29;20041;-33
2023/07/20 07:24:18;;;;;;;2.20;1.30;;;17.20;99.90;;;;;;4898168;29;20044;-33
2023/07/20 07:26:44;;;;;;;2.10;1.40;;;17.30;99.90;;;;;;4898393;29;20051;-33
2023/07/20 07:29:09;;;;;;;2.33;1.30;;;17.20;99.90;;;;;;4890211;29;20048;-32
2023/07/20 07:31:36;;;;;;;2.67;1.15;;;17.20;99.90;;;;;;4899826;29;20051;-33
2023/07/20 07:34:02;;;;;;;2.50;1.50;;;17.20;99.90;;;;;;4907517;29;20044;-33
2023/07/20 07:36:28;;;;;;;2.05;1.40;;;17.20;99.90;;;;;;4899745;29;20052;-33
2023/07/20 07:38:53;;;;;;;2.28;1.40;;;17.30;99.90;;;;;;4896389;29;20041;-33
2023/07/20 07:41:20;;;;;;;4.10;1.63;;;17.70;99.90;;;;;;4895060;29;20693;-33
2023/07/20 07:43:46;;;;;;;2.28;1.00;;;17.80;99.90;;;;;;4904107;29;20045;-33
2023/07/20 07:46:12;;;;;;;2.85;1.20;;;17.80;99.90;;;;;;4895881;29;20044;-33
2023/07/20 07:48:38;;;;;;;1.95;1.38;;;17.90;99.90;;;;;;4892881;29;20051;-33
2023/07/20 07:51:03;;;;;;;3.97;1.45;;;17.80;99.90;;;;;;4905208;29;20505;-33
2023/07/20 07:53:29;;;;;;;3.65;1.20;;;17.70;99.90;;;;;;4901939;29;20358;-33
2023/07/20 07:55:55;;;;;;;1.13;1.00;;;17.50;99.90;;;;;;4874511;29;20048;-33
2023/07/20 07:58:21;;;;;;;3.35;1.40;;;17.40;99.90;;;;;;4903037;29;20048;-33
2023/07/20 08:00:47;;;;;;;2.78;1.20;;;17.30;99.90;;;;;;4895857;29;20125;-32
2023/07/20 08:03:13;;;;;;;1.55;1.38;;;17.40;99.90;;;;;;4907285;29;20036;-33
2023/07/20 08:05:39;;;;;;;1.38;1.10;;;17.60;99.90;;;;;;4902687;29;20048;-33
2023/07/20 08:08:05;;;;;;;2.30;1.02;;;18.00;99.90;;;;;;4895947;29;20113;-33
2023/07/20 08:10:31;;;;;;;2.50;1.50;;;18.30;99.90;;;;;;4881151;29;20123;-33
2023/07/20 08:12:57;;;;;;;3.15;1.40;;;18.70;99.90;;;;;;4896003;29;20051;-33
2023/07/20 08:15:22;;;;;;;1.73;1.20;;;19.00;99.90;;;;;;4896058;29;20506;-33
2023/07/20 08:17:48;;;;;;;5.93;1.30;;;19.50;99.90;;;;;;4893679;29;20517;-33
2023/07/20 08:20:16;;;;;;;1.73;0.98;;;19.80;99.90;;;;;;4895582;29;20048;-33
2023/07/20 08:22:42;;;;;;;2.08;1.10;;;19.90;99.90;;;;;;4878334;29;20127;-33
2023/07/20 08:25:09;;;;;;;3.42;1.30;;;20.10;99.90;;;;;;4896096;29;20041;-33
2023/07/20 08:27:35;;;;;;;2.65;1.20;;;20.40;99.90;;;;;;4900218;29;20051;-33
2023/07/20 08:30:01;;;;;;;2.08;1.10;;;20.70;99.90;;;;;;4883265;29;20037;-35
2023/07/20 08:32:27;;;;;;;2.63;1.13;;;21.10;99.90;;;;;;4893187;29;20032;-34
2023/07/20 08:34:52;;;;;;;3.10;1.00;;;21.40;99.90;;;;;;4897628;29;20136;-35
2023/07/20 08:37:18;;;;;;;3.15;1.38;;;21.40;99.90;;;;;;4891642;29;20055;-35
2023/07/20 08:39:44;;;;;;;1.77;1.05;;;21.50;99.90;;;;;;4900065;29;20561;-35
2023/07/20 08:42:10;;;;;;;1.77;1.20;;;21.60;99.90;;;;;;4884883;29;20143;-36
2023/07/20 08:44:38;;;;;;;1.55;1.02;;;21.80;99.90;;;;;;4893138;29;20044;-36
2023/07/20 08:47:07;;;;;;;1.85;1.10;;;22.00;99.90;;;;;;4889078;29;20044;-35
2023/07/20 08:49:33;;;;;;;3.42;1.10;;;22.00;99.90;;;;;;4891830;29;20043;-35
2023/07/20 08:52:00;;;;;;;1.75;0.98;;;22.10;99.90;;;;;;4900056;29;20033;-35
2023/07/20 08:54:35;;;;;;;3.20;0.93;;;22.10;99.90;;;;;;4894948;29;20529;-34
2023/07/20 08:57:05;;;;;;;3.42;1.30;;;22.10;99.90;;;;;;4896350;29;20056;-35
2023/07/20 08:59:32;;;;;;;1.05;0.95;;;22.30;99.90;;;;;;4893887;29;20443;-35
2023/07/20 09:01:59;;;;;;;3.25;1.10;;;22.30;99.90;;;;;;4900779;29;20067;-35
2023/07/20 09:04:25;;;;;;;1.95;1.17;;;22.30;99.90;;;;;;4897104;29;20037;-35
2023/07/20 09:06:51;;;;;;;2.53;1.00;;;22.60;99.90;;;;;;4878036;29;20044;-35
2023/07/20 09:09:17;;;;;;;2.70;0.90;;;22.80;99.90;;;;;;4897638;29;20032;-35
2023/07/20 09:11:46;;;;;;;1.27;1.00;;;22.90;99.40;;;;;;4892584;29;20051;-35
2023/07/20 09:14:11;;;;;;;1.88;1.10;;;23.00;97.50;;;;;;4889819;29;20040;-35
2023/07/20 09:16:52;;;;;;;4.05;0.90;;;22.90;98.20;;;;;;4892911;29;20063;-35
2023/07/20 09:19:18;;;;;;;1.13;0.90;;;22.60;96.80;;;;;;4898856;29;20502;-35
2023/07/20 09:21:51;;;;;;;3.97;1.10;;;22.30;99.10;;;;;;4894779;29;20049;-35
2023/07/20 09:24:20;;;;;;;3.08;1.42;;;22.10;99.60;;;;;;4893280;29;20049;-35
2023/07/20 09:26:48;;;;;;;1.60;1.02;;;21.80;99.10;;;;;;4886901;29;20574;-35
2023/07/20 09:29:18;;;;;;;1.95;0.88;;;21.60;99.60;;;;;;4887127;29;20064;-35
2023/07/20 09:32:02;;;;;;;1.20;0.90;;;21.40;99.90;;;;;;4886869;29;20036;-35
2023/07/20 09:34:31;;;;;;;2.30;1.20;;;21.40;98.80;;;;;;4895134;29;20040;-35
2023/07/20 09:37:01;;;;;;;1.50;0.90;;;21.40;99.90;;;;;;4901860;29;20040;-35
2023/07/20 09:39:29;;;;;;;1.17;1.05;;;21.60;99.50;;;;;;4879801;29;20045;-35
2023/07/20 09:42:01;;;;;;;1.55;0.90;;;21.90;98.60;;;;;;4875639;29;20033;-35
2023/07/20 09:44:28;;;;;;;1.05;0.90;;;22.10;97.80;;;;;;4896855;29;20083;-36
2023/07/20 09:46:55;;;;;;;2.15;0.77;;;22.40;97.10;;;;;;4897504;29;20044;-35
2023/07/20 09:49:21;;;;;;;2.80;1.05;;;22.80;96.00;;;;;;4890292;29;20045;-35
2023/07/20 09:51:48;;;;;;;1.30;0.82;;;23.00;95.00;;;;;;4894719;29;20044;-35
2023/07/20 09:54:14;;;;;;;1.80;0.98;;;23.40;94.00;;;;;;4895443;29;20044;-35
2023/07/20 09:56:41;;;;;;;0.98;0.70;;;23.90;93.10;;;;;;4894977;29;20049;-36
2023/07/20 09:59:07;;;;;;;0.77;0.63;;;23.90;91.50;;;;;;4894112;29;20125;-35
2023/07/20 10:01:34;;;;;;;1.90;0.82;;;24.10;90.90;;;;;;4890215;29;20107;-35
2023/07/20 10:04:04;;;;;;;1.30;0.88;;;23.80;87.30;;;;;;4902570;29;20044;-36
2023/07/20 10:06:32;;;;;;;3.53;1.10;;;23.40;85.90;;;;;;4898637;29;20055;-37
2023/07/20 10:09:03;;;;;;;2.95;0.90;;;23.00;85.70;;;;;;4902568;29;20050;-35
2023/07/20 10:11:31;;;;;;;2.25;0.98;;;22.80;86.80;;;;;;4904047;29;20069;-33
2023/07/20 10:13:59;;;;;;;2.33;1.05;;;22.50;88.40;;;;;;4899382;29;20388;-33
2023/07/20 10:16:39;;;;;;;1.95;1.00;;;22.20;88.40;;;;;;4896405;29;20056;-33
2023/07/20 10:19:15;;;;;;;2.38;0.90;;;22.00;83.90;;;;;;4896024;29;20055;-33
2023/07/20 10:21:47;;;;;;;0.90;0.75;;;21.60;85.70;;;;;;4898741;29;20120;-33
2023/07/20 10:24:14;;;;;;;2.85;1.13;;;21.40;87.30;;;;;;4898909;29;20044;-33
2023/07/20 10:26:40;;;;;;;2.75;1.05;;;21.20;88.50;;;;;;4897530;29;20096;-34
2023/07/20 10:29:06;;;;;;;1.10;0.98;;;21.20;90.30;;;;;;4898584;29;20040;-33
2023/07/20 10:31:33;;;;;;;1.33;1.23;;;20.90;91.00;;;;;;4899301;29;20422;-32
2023/07/20 10:33:59;;;;;;;2.08;1.20;;;20.70;92.70;;;;;;4882781;29;20127;-33
2023/07/20 10:36:27;;;;;;;2.58;1.42;;;20.70;94.30;;;;;;4898954;29;20040;-33
2023/07/20 10:38:55;;;;;;;1.40;1.30;;;20.80;96.00;;;;;;4898762;29;20076;-31
2023/07/20 10:41:21;;;;;;;1.83;1.30;;;20.70;97.10;;;;;;4898308;29;20101;-33
2023/07/20 10:43:49;;;;;;;2.88;1.35;;;20.50;98.60;;;;;;4898680;29;20052;-32
2023/07/20 10:46:32;;;;;;;2.45;1.40;;;20.50;99.90;;;;;;4909742;29;20040;-33
2023/07/20 10:49:04;;;;;;;2.10;1.40;;;20.60;99.90;;;;;;4917514;29;20411;-33
2023/07/20 10:51:30;;;;;;;1.80;1.20;;;20.60;99.90;;;;;;4916922;29;20080;-32
2023/07/20 10:54:02;;;;;;;2.15;1.52;;;20.60;99.90;;;;;;4917390;29;20075;-32
2023/07/20 10:56:32;;;;;;;1.80;1.38;;;20.50;99.90;;;;;;4916860;29;20442;-32
2023/07/20 10:59:16;;;;;;;1.65;1.20;;;20.30;99.90;;;;;;4917249;29;20447;-32
2023/07/20 11:01:44;;;;;;;1.60;1.00;;;20.20;99.90;;;;;;4903957;29;20056;-33
2023/07/20 11:04:12;;;;;;;1.15;0.98;;;20.10;99.90;;;;;;4898351;29;20431;-32
2023/07/20 11:06:43;;;;;;;1.05;1.00;;;20.10;99.90;;;;;;4897820;29;20040;-32
2023/07/20 11:09:19;;;;;;;1.00;0.80;;;20.30;99.90;;;;;;4897843;29;20040;-33
2023/07/20 11:11:48;;;;;;;1.98;0.73;;;20.30;99.90;;;;;;4897229;29;20047;-33
2023/07/20 11:14:24;;;;;;;1.08;0.90;;;20.30;99.90;;;;;;4898101;29;20279;-32
2023/07/20 11:16:51;;;;;;;1.08;0.95;;;20.40;99.90;;;;;;4897944;29;20121;-32
2023/07/20 11:19:24;;;;;;;1.38;1.10;;;20.60;99.90;;;;;;4897558;29;20060;-32
2023/07/20 11:21:59;;;;;;;0.93;0.70;;;20.60;99.90;;;;;;4878532;29;20105;-33
2023/07/20 11:24:25;;;;;;;1.50;0.80;;;20.70;99.90;;;;;;4895413;29;20051;-33
2023/07/20 11:26:52;;;;;;;1.30;1.00;;;20.80;99.90;;;;;;4897732;29;20416;-33
2023/07/20 11:29:20;;;;;;;1.35;1.00;;;21.20;99.90;;;;;;4898017;29;20044;-32
2023/07/20 11:31:47;;;;;;;1.52;0.80;;;21.40;99.90;;;;;;4897620;29;20045;-33
2023/07/20 11:34:15;;;;;;;1.20;0.85;;;21.50;99.90;;;;;;4897671;29;20087;-33
2023/07/20 11:36:48;;;;;;;1.23;1.08;;;21.90;99.90;;;;;;4897119;29;20044;-33
2023/07/20 11:39:19;;;;;;;2.20;1.00;;;22.10;99.90;;;;;;4896165;29;20057;-33
2023/07/20 11:41:53;;;;;;;1.98;1.20;;;22.30;99.90;;;;;;4896618;29;20052;-33
2023/07/20 11:44:26;;;;;;;1.30;1.20;;;22.70;99.90;;;;;;4906200;29;20051;-32
2023/07/20 11:47:06;;;;;;;1.98;1.17;;;22.90;99.50;;;;;;4896925;29;20117;-33
2023/07/20 11:49:42;;;;;;;2.10;1.20;;;23.20;96.90;;;;;;4897304;29;20044;-33
2023/07/20 11:52:18;;;;;;;1.70;1.00;;;23.00;96.80;;;;;;4896759;29;20036;-33
2023/07/20 11:54:47;;;;;;;2.03;1.60;;;23.40;97.80;;;;;;4897103;29;20041;-33
2023/07/20 11:57:19;;;;;;;2.63;1.55;;;23.60;97.90;;;;;;4897282;29;20040;-33
2023/07/20 11:59:58;;;;;;;2.03;1.27;;;23.90;98.00;;;;;;4897409;29;20041;-33
2023/07/20 12:02:26;;;;;;;2.35;1.35;;;24.60;97.50;;;;;;4891878;29;20108;-36
2023/07/20 12:04:52;;;;;;;3.35;1.00;;;24.80;94.40;;;;;;4894369;29;20040;-35
2023/07/20 12:07:21;;;;;;;1.10;1.00;;;25.40;92.00;;;;;;4893081;29;20442;-35
2023/07/20 12:10:06;;;;;;;1.95;1.10;;;25.80;88.30;;;;;;4891265;29;20475;-36
2023/07/20 12:12:38;;;;;;;2.00;0.88;;;26.30;87.90;;;;;;4886988;29;20044;-36
2023/07/20 12:15:17;;;;;;;1.35;1.02;;;26.30;81.20;;;;;;4889658;29;20494;-36
2023/07/20 12:17:46;;;;;;;2.55;0.90;;;26.10;76.10;;;;;;4874913;29;20044;-36
2023/07/20 12:20:13;;;;;;;1.70;1.00;;;25.50;76.00;;;;;;4894457;29;20471;-36
2023/07/20 12:22:43;;;;;;;2.17;0.98;;;25.00;76.30;;;;;;4893890;29;20041;-36
2023/07/20 12:25:09;;;;;;;1.05;0.88;;;24.90;77.90;;;;;;4887775;29;20048;-35
2023/07/20 12:27:41;;;;;;;1.25;0.90;;;24.60;77.70;;;;;;4894651;29;20041;-35
2023/07/20 12:30:08;;;;;;;2.25;1.00;;;24.40;77.70;;;;;;4888558;29;20044;-35
2023/07/20 12:32:34;;;;;;;1.05;0.80;;;23.90;78.20;;;;;;4889584;29;20123;-35
2023/07/20 12:35:00;;;;;;;1.02;1.00;;;23.70;78.20;;;;;;4887247;29;20185;-35
2023/07/20 12:37:26;;;;;;;1.17;1.00;;;23.70;78.80;;;;;;4890590;29;20049;-36
2023/07/20 12:39:52;;;;;;;1.27;0.93;;;23.70;79.40;;;;;;4870341;29;20044;-35
2023/07/20 12:42:18;;;;;;;2.05;1.20;;;24.50;81.20;;;;;;4893505;29;20407;-36
2023/07/20 12:44:44;;;;;;;1.85;1.08;;;24.80;79.00;;;;;;4889778;29;20050;-35
2023/07/20 12:47:10;;;;;;;1.63;1.30;;;25.00;79.00;;;;;;4884062;29;20511;-35
2023/07/20 12:49:35;;;;;;;1.25;1.00;;;24.80;76.80;;;;;;4889309;29;20040;-35